createdAt,value
2022-07-30T00:03:32.927Z,2.1
2022-07-30T00:09:52.874Z,2.1
2022-07-30T00:16:15.921Z,2.1
2022-07-30T00:22:35.868Z,2.1
2022-07-30T00:28:58.880Z,1.8
2022-07-30T00:35:18.908Z,1.8
2022-07-30T00:41:41.893Z,2.3
2022-07-30T00:48:01.926Z,2.3
2022-07-30T00:54:24.882Z,3.8
2022-07-30T01:00:44.949Z,3.8
2022-07-30T01:07:07.919Z,2.6
2022-07-30T01:13:27.880Z,2.6
2022-07-30T01:19:50.929Z,1.4
2022-07-30T01:26:10.885Z,1.4
2022-07-30T01:32:33.935Z,1.7
2022-07-30T01:38:53.896Z,1.7
2022-07-30T01:45:16.869Z,1.9
2022-07-30T01:51:37.264Z,1.9
2022-07-30T01:57:59.871Z,4.4
2022-07-30T02:04:19.925Z,4.4
2022-07-30T02:10:42.890Z,3.9
2022-07-30T02:17:03.371Z,3.9
2022-07-30T02:23:25.911Z,4.9
2022-07-30T02:29:45.885Z,4.9
2022-07-30T02:36:11.281Z,4.1
2022-07-30T02:42:28.903Z,4.1
2022-07-30T02:48:51.912Z,1.9
2022-07-30T02:55:11.944Z,1.9
2022-07-30T03:01:34.920Z,2.4
2022-07-30T03:07:54.923Z,2.4
2022-07-30T03:14:17.975Z,1.4
2022-07-30T03:20:37.899Z,1.4
2022-07-30T03:27:01.180Z,3
2022-07-30T03:33:20.925Z,3
2022-07-30T03:39:43.952Z,1.7
2022-07-30T03:46:04.026Z,1.7
2022-07-30T03:52:26.944Z,4.4
2022-07-30T04:09:09.559Z,12.4
2022-07-30T04:16:05.229Z,7.6
2022-07-30T04:21:51.903Z,7.6
2022-07-30T04:28:15.004Z,7.6
2022-07-30T04:34:34.889Z,7.6
2022-07-30T04:40:57.932Z,3.9
2022-07-30T04:47:17.897Z,3.9
2022-07-30T04:53:40.895Z,3.8
2022-07-30T05:00:00.932Z,3.8
2022-07-30T05:06:23.917Z,4.7
2022-07-30T05:12:43.903Z,4.7
2022-07-30T05:19:07.355Z,4.6
2022-07-30T05:25:26.884Z,4.6
2022-07-30T05:31:49.993Z,4.4
2022-07-30T05:38:09.887Z,4.4
2022-07-30T05:44:32.903Z,7.2
2022-07-30T05:50:52.909Z,7.2
2022-07-30T05:57:15.893Z,31.1
2022-07-30T06:03:35.946Z,31.1
2022-07-30T06:09:58.892Z,7.4
2022-07-30T06:16:18.936Z,7.4
2022-07-30T06:22:41.899Z,20.5
2022-07-30T06:29:01.911Z,20.5
2022-07-30T06:35:24.938Z,6.8
2022-07-30T06:41:44.881Z,6.8
2022-07-30T06:48:07.908Z,4.1
2022-07-30T06:54:27.915Z,4.1
2022-07-30T07:00:50.917Z,15.2
2022-07-30T07:07:12.349Z,15.2
2022-07-30T07:13:33.902Z,8.6
2022-07-30T07:19:59.194Z,8.6
2022-07-30T07:26:16.930Z,9.7
2022-07-30T07:32:36.900Z,9.7
2022-07-30T07:38:59.955Z,20.3
2022-07-30T07:45:19.889Z,20.3
2022-07-30T07:51:47.935Z,7.3
2022-07-30T07:58:02.923Z,7.3
2022-07-30T08:04:25.892Z,5.5
2022-07-30T08:10:45.921Z,5.5
2022-07-30T08:17:09.392Z,16.9
2022-07-30T08:23:28.926Z,16.9
2022-07-30T08:29:52.158Z,5.3
2022-07-30T08:36:11.886Z,5.3
2022-07-30T08:42:34.943Z,9.7
2022-07-30T08:48:54.902Z,9.7
2022-07-30T08:55:17.937Z,5.6
2022-07-30T09:01:37.942Z,5.6
2022-07-30T09:08:00.895Z,5.9
2022-07-30T09:14:20.941Z,5.9
2022-07-30T09:20:43.891Z,14.6
2022-07-30T09:27:04.167Z,14.6
2022-07-30T09:33:26.913Z,7.2
2022-07-30T09:39:56.715Z,7.2
2022-07-30T10:04:33.911Z,19.1
2022-07-30T10:10:57.047Z,12.9
2022-07-30T10:17:17.408Z,12.9
2022-07-30T10:23:39.914Z,5.1
2022-07-30T10:29:59.931Z,5.1
2022-07-30T10:36:23.336Z,7.9
2022-07-30T10:42:42.897Z,7.9
2022-07-30T10:49:05.961Z,3.1
2022-07-30T10:55:32.806Z,3.1
2022-07-30T11:02:02.606Z,2.8
2022-07-30T11:08:10.018Z,2.8
2022-07-30T11:14:33.446Z,12.1
2022-07-30T11:20:52.989Z,12.1
2022-07-30T11:27:15.955Z,1.7
2022-07-30T11:33:35.958Z,1.7
2022-07-30T11:39:58.929Z,5.3
2022-07-30T11:46:25.297Z,5.3
2022-07-30T11:52:41.966Z,1.4
2022-07-30T11:59:01.902Z,1.4
2022-07-30T12:05:24.965Z,0.9
2022-07-30T12:11:44.904Z,0.9
2022-07-30T12:18:28.476Z,3.2
2022-07-30T12:24:27.915Z,3.2
2022-07-30T12:30:50.892Z,1.8
2022-07-30T12:37:10.929Z,1.8
2022-07-30T12:43:33.922Z,3.9
2022-07-30T12:49:53.949Z,3.9
2022-07-30T12:56:16.933Z,1.3
2022-07-30T13:02:36.880Z,1.3
2022-07-30T13:08:59.931Z,4.1
2022-07-30T13:15:19.884Z,4.1
2022-07-30T13:21:49.638Z,7.8
2022-07-30T13:28:02.936Z,7.8
2022-07-30T13:34:25.887Z,1
2022-07-30T13:40:46.122Z,1
2022-07-30T13:47:09.174Z,3.2
2022-07-30T13:53:28.928Z,3.2
2022-07-30T13:59:51.886Z,4
2022-07-30T14:06:11.888Z,4
2022-07-30T14:12:34.936Z,3.7
2022-07-30T14:18:54.880Z,3.7
2022-07-30T14:25:17.942Z,3.8
2022-07-30T14:31:37.898Z,3.8
2022-07-30T14:38:00.888Z,1.9
2022-07-30T14:44:20.933Z,1.9
2022-07-30T14:51:03.620Z,4.8
2022-07-30T14:57:04.521Z,4.8
2022-07-30T15:03:27.147Z,0.8
2022-07-30T15:09:47.194Z,0.8
2022-07-30T15:16:09.917Z,6.1
2022-07-30T15:31:41.836Z,0.9
2022-07-30T15:38:01.880Z,0.9
2022-07-30T15:44:24.900Z,12.4
2022-07-30T15:50:44.898Z,12.4
2022-07-30T15:57:07.897Z,12.4
2022-07-30T16:03:27.941Z,12.4
2022-07-30T16:09:50.931Z,2.2
2022-07-30T16:16:10.930Z,2.2
2022-07-30T16:22:33.895Z,8.5
2022-07-30T16:28:53.905Z,8.5
2022-07-30T16:35:16.913Z,2.2
2022-07-30T16:41:36.900Z,2.2
2022-07-30T16:47:59.956Z,1
2022-07-30T16:54:19.897Z,1
2022-07-30T17:00:42.990Z,1.9
2022-07-30T17:07:02.896Z,1.9
2022-07-30T17:13:25.890Z,1.2
2022-07-30T17:19:45.929Z,1.2
2022-07-30T17:26:08.887Z,1
2022-07-30T17:32:28.899Z,1
2022-07-30T17:38:51.922Z,3.1
2022-07-30T17:45:11.889Z,3.1
2022-07-30T17:51:34.937Z,1.2
2022-07-30T17:57:54.890Z,1.2
2022-07-30T18:04:17.928Z,1.6
2022-07-30T18:10:37.888Z,1.6
2022-07-30T18:17:00.888Z,1.8
2022-07-30T18:23:20.921Z,1.8
2022-07-30T18:29:43.891Z,0.4
2022-07-30T18:36:03.947Z,0.4
2022-07-30T18:42:26.900Z,0.5
2022-07-30T18:48:46.993Z,0.5
2022-07-30T18:55:09.933Z,1.9
2022-07-30T19:01:29.920Z,1.9
2022-07-30T19:07:57.583Z,15.4
2022-07-30T19:14:12.882Z,15.4
2022-07-30T19:20:35.912Z,4.4
2022-07-30T19:26:55.908Z,4.4
2022-07-30T19:33:18.884Z,1.5
2022-07-30T19:39:38.931Z,1.5
2022-07-30T19:46:02.109Z,3
2022-07-30T19:52:23.148Z,3
2022-07-30T19:58:44.910Z,0.4
2022-07-30T20:05:05.950Z,0.4
2022-07-30T20:11:34.935Z,8.3
2022-07-30T20:17:47.874Z,8.3
2022-07-30T20:24:10.932Z,0.3
2022-07-30T20:30:30.900Z,0.3
2022-07-30T20:36:54.041Z,1.1
2022-07-30T20:43:13.911Z,1.1
2022-07-30T20:49:36.905Z,0.6
2022-07-30T20:55:56.911Z,0.6
2022-07-30T21:02:26.669Z,1
2022-07-30T21:18:08.855Z,2.7
2022-07-30T21:24:28.854Z,2.7
2022-07-30T21:30:51.874Z,3.7
2022-07-30T21:37:12.974Z,3.7
2022-07-30T21:43:34.870Z,6.1
2022-07-30T21:49:54.933Z,6.1
2022-07-30T21:56:18.183Z,1
2022-07-30T22:21:50.890Z,2.4
2022-07-30T22:28:09.922Z,2.4
2022-07-30T22:34:32.873Z,2.4
2022-07-30T22:40:52.866Z,2.4
2022-07-30T22:47:19.034Z,1.1
2022-07-30T22:54:10.165Z,1.1
2022-07-30T23:00:00.598Z,0.4
2022-07-30T23:06:20.564Z,0.4
2022-07-30T23:12:42.016Z,1.9
2022-07-30T23:19:01.912Z,1.9
2022-07-30T23:25:24.879Z,1.9
2022-07-30T23:31:44.899Z,1.9
2022-07-30T23:38:07.907Z,0.4
2022-07-30T23:44:27.886Z,0.4
2022-07-30T23:50:50.911Z,0.7
2022-07-30T23:57:10.872Z,0.7
